Time;durP1;ratioP1;P1;durP2;ratioP2;P2;SDS_P1;SDS_P2;PMS_P1;PMS_P2;Temp;Humidity;BMP_temperature;BMP_pressure;BME280_temperature;BME280_humidity;BME280_pressure;Samples;Min_cycle;Max_cycle;Signal;HPM_P1;HPM_P2
2021/09/04 00:00:31;;;;;;;37.45;14.38;;;;;;;;;;4946696;28;20034;-77
2021/09/04 00:02:57;;;;;;;40.95;16.23;;;;;;;;;;4947955;28;20067;-77
2021/09/04 00:05:23;;;;;;;39.92;15.02;;;;;;;;;;4938793;28;20106;-78
2021/09/04 00:07:48;;;;;;;35.63;13.82;;;;;;;;;;4943558;28;20047;-77
2021/09/04 00:10:14;;;;;;;42.38;15.80;;;;;;;;;;4941508;28;20031;-77
2021/09/04 00:12:39;;;;;;;38.65;14.93;;;;;;;;;;4932660;28;20032;-77
2021/09/04 00:15:06;;;;;;;35.00;14.63;;;;;;;;;;4924904;29;20039;-77
2021/09/04 00:17:32;;;;;;;33.65;15.13;;;;;;;;;;4947908;28;20089;-77
2021/09/04 00:19:57;;;;;;;40.60;14.65;;;;;;;;;;4942048;28;20675;-78
2021/09/04 00:22:23;;;;;;;42.30;15.48;;;;;;;;;;4936446;28;20043;-77
2021/09/04 00:24:48;;;;;;;49.33;16.27;;;;;;;;;;4950062;28;20065;-78
2021/09/04 00:27:14;;;;;;;44.05;15.18;;;;;;;;;;4926464;28;20031;-78
2021/09/04 00:29:39;;;;;;;41.58;14.98;;;;;;;;;;4939097;28;20039;-78
2021/09/04 00:32:05;;;;;;;38.40;16.00;;;;;;;;;;4943789;28;20028;-78
2021/09/04 00:34:31;;;;;;;45.97;16.25;;;;;;;;;;4947418;28;20217;-77
2021/09/04 00:36:56;;;;;;;40.00;16.20;;;;;;;;;;4940367;28;20553;-78
2021/09/04 00:39:21;;;;;;;43.15;16.63;;;;;;;;;;4928844;28;20066;-78
2021/09/04 00:41:47;;;;;;;43.35;16.90;;;;;;;;;;4946231;28;20039;-78
2021/09/04 00:44:21;;;;;;;41.95;15.07;;;;;;;;;;4941078;28;20057;-78
2021/09/04 00:46:46;;;;;;;41.67;16.08;;;;;;;;;;4943452;28;20035;-78
2021/09/04 00:49:13;;;;;;;36.00;14.75;;;;;;;;;;4940716;28;20933;-78
2021/09/04 00:51:38;;;;;;;36.85;15.88;;;;;;;;;;4948142;28;20051;-78
2021/09/04 00:54:05;;;;;;;36.30;15.73;;;;;;;;;;4948376;28;20039;-78
2021/09/04 00:56:30;;;;;;;41.05;15.55;;;;;;;;;;4941411;28;20059;-78
2021/09/04 00:58:56;;;;;;;42.42;15.40;;;;;;;;;;4935667;28;20952;-77
2021/09/04 01:01:21;;;;;;;54.92;17.08;;;;;;;;;;4940173;28;20106;-78
2021/09/04 01:03:47;;;;;;;44.55;16.73;;;;;;;;;;4947472;28;20026;-78
2021/09/04 01:06:15;;;;;;;44.13;16.58;;;;;;;;;;4934540;28;20544;-78
2021/09/04 01:08:41;;;;;;;46.63;16.08;;;;;;;;;;4934705;28;20477;-78
2021/09/04 01:11:08;;;;;;;44.17;16.67;;;;;;;;;;4941065;28;20035;-77
2021/09/04 01:13:37;;;;;;;48.38;17.17;;;;;;;;;;4926173;29;20027;-78
2021/09/04 01:16:03;;;;;;;43.53;15.75;;;;;;;;;;4939119;28;20058;-78
2021/09/04 01:18:29;;;;;;;50.03;17.15;;;;;;;;;;4942713;28;20038;-78
2021/09/04 01:20:55;;;;;;;47.22;16.63;;;;;;;;;;4936113;28;20035;-78
2021/09/04 01:23:20;;;;;;;44.08;16.55;;;;;;;;;;4935617;28;20043;-78
2021/09/04 01:25:52;;;;;;;43.10;16.77;;;;;;;;;;4950422;28;20073;-77
2021/09/04 01:28:17;;;;;;;56.30;18.25;;;;;;;;;;4940049;28;20046;-78
2021/09/04 01:30:43;;;;;;;46.55;16.73;;;;;;;;;;4940276;28;20027;-78
2021/09/04 01:33:10;;;;;;;50.13;16.33;;;;;;;;;;4939894;28;20038;-77
2021/09/04 01:35:35;;;;;;;49.15;17.75;;;;;;;;;;4943396;28;20063;-78
2021/09/04 01:38:01;;;;;;;45.10;16.67;;;;;;;;;;4947817;28;20114;-77
2021/09/04 01:40:26;;;;;;;46.70;17.70;;;;;;;;;;4945588;28;20083;-77
2021/09/04 01:42:52;;;;;;;56.50;18.55;;;;;;;;;;4949900;28;20129;-77
2021/09/04 01:45:17;;;;;;;49.88;17.55;;;;;;;;;;4943836;28;20038;-78
2021/09/04 01:47:43;;;;;;;46.83;16.45;;;;;;;;;;4943858;28;20118;-78
2021/09/04 01:50:10;;;;;;;46.70;16.83;;;;;;;;;;4936401;28;20047;-77
2021/09/04 01:52:36;;;;;;;48.35;17.75;;;;;;;;;;4942355;28;20075;-77
2021/09/04 01:55:02;;;;;;;48.15;16.95;;;;;;;;;;4937855;28;20075;-77
2021/09/04 01:57:28;;;;;;;48.80;16.52;;;;;;;;;;4946238;28;20031;-78
2021/09/04 01:59:53;;;;;;;49.35;16.63;;;;;;;;;;4941967;28;20243;-78
2021/09/04 02:02:19;;;;;;;39.70;16.00;;;;;;;;;;4931728;29;20067;-77
2021/09/04 02:04:44;;;;;;;41.00;16.23;;;;;;;;;;4924158;29;20700;-77
2021/09/04 02:07:10;;;;;;;45.72;16.67;;;;;;;;;;4939112;28;20070;-78
2021/09/04 02:09:35;;;;;;;39.80;16.08;;;;;;;;;;4948201;28;20041;-77
2021/09/04 02:12:01;;;;;;;43.88;16.92;;;;;;;;;;4944721;28;20031;-77
2021/09/04 02:14:27;;;;;;;41.08;15.35;;;;;;;;;;4948882;28;20031;-78
2021/09/04 02:16:52;;;;;;;44.88;15.65;;;;;;;;;;4936933;28;20445;-78
2021/09/04 02:19:18;;;;;;;42.65;15.88;;;;;;;;;;4949347;28;20067;-78
2021/09/04 02:21:43;;;;;;;43.13;15.75;;;;;;;;;;4951945;28;20039;-78
2021/09/04 02:24:09;;;;;;;42.58;15.63;;;;;;;;;;4942502;28;20034;-78
2021/09/04 02:26:34;;;;;;;38.83;16.20;;;;;;;;;;4941994;28;20714;-78
2021/09/04 02:29:00;;;;;;;48.03;16.45;;;;;;;;;;4927762;28;20039;-78
2021/09/04 02:31:25;;;;;;;44.03;16.15;;;;;;;;;;4939566;28;20032;-77
2021/09/04 02:33:55;;;;;;;46.55;16.23;;;;;;;;;;4944214;28;20533;-77
2021/09/04 02:36:22;;;;;;;46.78;17.20;;;;;;;;;;4945589;28;21071;-78
2021/09/04 02:38:48;;;;;;;46.53;16.58;;;;;;;;;;4943808;28;20051;-78
2021/09/04 02:41:14;;;;;;;44.03;15.38;;;;;;;;;;4922880;28;20035;-78
2021/09/04 02:43:39;;;;;;;39.10;15.60;;;;;;;;;;4936543;28;20046;-78
2021/09/04 02:46:05;;;;;;;40.17;16.00;;;;;;;;;;4950608;28;20065;-77
2021/09/04 02:48:31;;;;;;;40.28;16.48;;;;;;;;;;4934553;29;20127;-77
2021/09/04 02:50:57;;;;;;;38.85;16.15;;;;;;;;;;4945183;28;20051;-78
2021/09/04 02:53:22;;;;;;;36.28;14.95;;;;;;;;;;4948670;28;20039;-78
2021/09/04 02:55:48;;;;;;;44.08;15.95;;;;;;;;;;4947214;28;20055;-78
2021/09/04 02:58:13;;;;;;;49.33;17.08;;;;;;;;;;4938309;28;20389;-78
2021/09/04 03:00:39;;;;;;;53.05;17.40;;;;;;;;;;4938494;28;20039;-78
2021/09/04 03:03:04;;;;;;;46.40;17.55;;;;;;;;;;4943577;28;20533;-78
2021/09/04 03:05:31;;;;;;;41.05;15.73;;;;;;;;;;4946965;28;20393;-78
2021/09/04 03:07:58;;;;;;;48.30;17.50;;;;;;;;;;4952075;28;20377;-78
2021/09/04 03:10:23;;;;;;;42.95;16.80;;;;;;;;;;4943837;28;20477;-78
2021/09/04 03:12:49;;;;;;;43.13;17.23;;;;;;;;;;4944653;28;20094;-78
2021/09/04 03:15:14;;;;;;;54.70;20.15;;;;;;;;;;4946153;28;20071;-78
2021/09/04 03:17:40;;;;;;;50.55;17.75;;;;;;;;;;4947562;28;20050;-77
2021/09/04 03:20:06;;;;;;;56.50;18.25;;;;;;;;;;4945934;28;20042;-77
2021/09/04 03:22:31;;;;;;;47.83;17.45;;;;;;;;;;4950050;28;20031;-77
2021/09/04 03:24:57;;;;;;;45.25;16.77;;;;;;;;;;4951628;28;20101;-77
2021/09/04 03:27:22;;;;;;;55.85;18.98;;;;;;;;;;4947359;28;20143;-78
2021/09/04 03:29:48;;;;;;;43.40;16.13;;;;;;;;;;4946377;28;20035;-78
2021/09/04 03:32:13;;;;;;;41.08;15.77;;;;;;;;;;4948516;28;20043;-78
2021/09/04 03:34:39;;;;;;;49.85;17.17;;;;;;;;;;4928392;28;20034;-77
2021/09/04 03:37:06;;;;;;;42.80;17.02;;;;;;;;;;4930692;28;20118;-79
2021/09/04 03:39:31;;;;;;;43.92;15.65;;;;;;;;;;4941105;28;20043;-79
2021/09/04 03:41:57;;;;;;;39.30;16.42;;;;;;;;;;4948407;28;20042;-79
2021/09/04 03:44:22;;;;;;;45.38;15.90;;;;;;;;;;4939864;28;21400;-79
2021/09/04 03:46:48;;;;;;;37.25;15.88;;;;;;;;;;4944283;28;20031;-78
2021/09/04 03:49:13;;;;;;;46.17;15.85;;;;;;;;;;4948046;28;20115;-78
2021/09/04 03:51:39;;;;;;;46.70;16.35;;;;;;;;;;4949536;28;20501;-78
2021/09/04 03:54:05;;;;;;;44.75;16.52;;;;;;;;;;4929495;28;20484;-78
2021/09/04 03:56:31;;;;;;;49.63;16.50;;;;;;;;;;4946019;28;20038;-78
2021/09/04 03:58:56;;;;;;;49.35;16.83;;;;;;;;;;4942516;28;20036;-79
2021/09/04 04:01:22;;;;;;;42.60;15.68;;;;;;;;;;4930600;28;20058;-79
2021/09/04 04:03:47;;;;;;;47.28;16.33;;;;;;;;;;4943497;28;20703;-79
2021/09/04 04:06:13;;;;;;;48.22;17.00;;;;;;;;;;4947654;28;20417;-79
2021/09/04 04:08:38;;;;;;;54.08;17.02;;;;;;;;;;4944866;28;20564;-79
2021/09/04 04:11:11;;;;;;;48.78;16.83;;;;;;;;;;4946685;28;20118;-78
2021/09/04 04:13:37;;;;;;;49.55;16.95;;;;;;;;;;4952602;28;20023;-79
2021/09/04 04:16:04;;;;;;;43.50;15.40;;;;;;;;;;4950568;28;20439;-79
2021/09/04 04:18:29;;;;;;;56.70;17.73;;;;;;;;;;4945801;28;20044;-79
2021/09/04 04:20:55;;;;;;;52.22;18.73;;;;;;;;;;4941180;28;20051;-79
2021/09/04 04:23:20;;;;;;;45.00;17.02;;;;;;;;;;4939157;28;20028;-79
2021/09/04 04:25:46;;;;;;;44.25;17.45;;;;;;;;;;4947728;28;20054;-79
2021/09/04 04:28:11;;;;;;;50.08;18.20;;;;;;;;;;4944796;28;20443;-78
2021/09/04 04:30:37;;;;;;;54.78;17.77;;;;;;;;;;4945374;28;20027;-79
2021/09/04 04:33:02;;;;;;;43.45;16.75;;;;;;;;;;4940104;28;20043;-79
2021/09/04 04:35:28;;;;;;;43.63;17.17;;;;;;;;;;4940098;28;20066;-78
2021/09/04 04:37:53;;;;;;;47.63;17.42;;;;;;;;;;4940127;28;20041;-79
2021/09/04 04:40:19;;;;;;;47.83;16.98;;;;;;;;;;4948423;28;20046;-79
2021/09/04 04:42:44;;;;;;;61.35;18.70;;;;;;;;;;4949959;28;20515;-79
2021/09/04 04:45:10;;;;;;;46.38;17.45;;;;;;;;;;4940368;28;20020;-79
2021/09/04 04:47:35;;;;;;;44.28;16.50;;;;;;;;;;4943074;28;20763;-79
2021/09/04 04:50:01;;;;;;;47.90;18.20;;;;;;;;;;4928643;28;20099;-78
2021/09/04 04:52:26;;;;;;;43.15;16.50;;;;;;;;;;4940571;28;20646;-79
2021/09/04 04:54:52;;;;;;;58.15;19.75;;;;;;;;;;4942971;28;20032;-79
2021/09/04 04:57:18;;;;;;;47.25;15.82;;;;;;;;;;4943164;28;20038;-78
2021/09/04 04:59:43;;;;;;;50.08;16.02;;;;;;;;;;4944598;28;20035;-78
2021/09/04 05:02:09;;;;;;;50.17;16.60;;;;;;;;;;4939448;28;20039;-78
2021/09/04 05:04:34;;;;;;;60.42;18.38;;;;;;;;;;4946097;28;20035;-79
2021/09/04 05:07:00;;;;;;;46.80;16.27;;;;;;;;;;4941571;28;20073;-78
2021/09/04 05:09:26;;;;;;;45.55;17.20;;;;;;;;;;4927110;28;20093;-79
2021/09/04 05:11:51;;;;;;;52.13;16.35;;;;;;;;;;4937006;28;20039;-78
2021/09/04 05:14:17;;;;;;;47.90;16.75;;;;;;;;;;4942183;28;20035;-78
2021/09/04 05:16:42;;;;;;;59.08;17.05;;;;;;;;;;4947099;28;20032;-78
2021/09/04 05:19:08;;;;;;;46.67;16.75;;;;;;;;;;4939548;28;20039;-78
2021/09/04 05:21:33;;;;;;;47.90;16.92;;;;;;;;;;4937581;28;20019;-79
2021/09/04 05:23:59;;;;;;;45.80;17.45;;;;;;;;;;4938933;28;20031;-78
2021/09/04 05:26:24;;;;;;;46.85;16.35;;;;;;;;;;4939729;28;20104;-79
2021/09/04 05:28:50;;;;;;;45.47;16.00;;;;;;;;;;4937051;28;20047;-78
2021/09/04 05:31:16;;;;;;;48.08;17.10;;;;;;;;;;4944076;28;20044;-78
2021/09/04 05:33:41;;;;;;;49.22;17.02;;;;;;;;;;4930849;28;20078;-78
2021/09/04 05:36:08;;;;;;;42.00;16.52;;;;;;;;;;4908071;28;20031;-79
2021/09/04 05:38:37;;;;;;;40.92;16.48;;;;;;;;;;4947427;28;20062;-78
2021/09/04 05:41:04;;;;;;;43.50;14.80;;;;;;;;;;4947439;28;20027;-78
2021/09/04 05:43:30;;;;;;;37.10;15.88;;;;;;;;;;4947596;28;20566;-78
2021/09/04 05:45:55;;;;;;;45.90;16.85;;;;;;;;;;4942373;28;20122;-79
2021/09/04 05:48:21;;;;;;;42.78;17.02;;;;;;;;;;4943845;28;20045;-79
2021/09/04 05:50:46;;;;;;;47.25;16.52;;;;;;;;;;4934022;28;20425;-79
2021/09/04 05:53:12;;;;;;;46.88;17.15;;;;;;;;;;4943370;28;20110;-78
2021/09/04 05:55:37;;;;;;;45.03;15.93;;;;;;;;;;4944243;28;20037;-78
2021/09/04 05:58:04;;;;;;;39.00;15.40;;;;;;;;;;4943632;28;20114;-79
2021/09/04 06:00:30;;;;;;;40.80;15.32;;;;;;;;;;4936480;28;20038;-78
2021/09/04 06:02:55;;;;;;;43.85;15.07;;;;;;;;;;4942895;28;20134;-78
2021/09/04 06:05:21;;;;;;;41.88;15.88;;;;;;;;;;4924822;28;20566;-78
2021/09/04 06:07:46;;;;;;;42.05;15.13;;;;;;;;;;4946348;28;20094;-78
2021/09/04 06:10:12;;;;;;;44.97;16.73;;;;;;;;;;4939933;28;20034;-78
2021/09/04 06:12:37;;;;;;;40.78;15.65;;;;;;;;;;4939115;28;20489;-77
2021/09/04 06:15:04;;;;;;;44.15;15.05;;;;;;;;;;4944940;28;20023;-78
2021/09/04 06:17:29;;;;;;;40.47;14.55;;;;;;;;;;4931329;28;20122;-78
2021/09/04 06:19:55;;;;;;;41.90;15.00;;;;;;;;;;4951584;28;20123;-78
2021/09/04 06:22:20;;;;;;;37.17;14.95;;;;;;;;;;4932605;28;20094;-78
2021/09/04 06:24:46;;;;;;;45.65;15.32;;;;;;;;;;4941883;28;20032;-78
2021/09/04 06:27:11;;;;;;;41.85;16.05;;;;;;;;;;4949923;28;20063;-78
2021/09/04 06:29:37;;;;;;;40.45;15.20;;;;;;;;;;4942265;28;20522;-78
2021/09/04 06:32:05;;;;;;;42.38;14.73;;;;;;;;;;4945815;28;20027;-78
2021/09/04 06:34:30;;;;;;;40.30;16.75;;;;;;;;;;4943155;28;20028;-78
2021/09/04 06:36:56;;;;;;;49.05;16.73;;;;;;;;;;4942562;28;20557;-78
2021/09/04 06:39:21;;;;;;;34.58;15.50;;;;;;;;;;4945849;28;20123;-78
2021/09/04 06:41:46;;;;;;;39.58;14.45;;;;;;;;;;4948818;28;20061;-78
2021/09/04 06:44:12;;;;;;;39.95;16.15;;;;;;;;;;4949507;28;20023;-78
2021/09/04 06:46:37;;;;;;;51.45;15.02;;;;;;;;;;4944481;28;20035;-78
2021/09/04 06:49:03;;;;;;;43.78;15.68;;;;;;;;;;4944513;28;20038;-77
2021/09/04 06:51:28;;;;;;;39.83;16.08;;;;;;;;;;4941569;28;20047;-77
2021/09/04 06:53:54;;;;;;;40.88;15.85;;;;;;;;;;4940966;28;20039;-77
2021/09/04 06:56:19;;;;;;;47.50;16.95;;;;;;;;;;4942766;28;20031;-77
2021/09/04 06:58:45;;;;;;;50.03;16.77;;;;;;;;;;4941346;28;20046;-78
2021/09/04 07:01:10;;;;;;;45.08;16.90;;;;;;;;;;4943418;28;20039;-77
2021/09/04 07:03:36;;;;;;;44.33;15.43;;;;;;;;;;4945426;28;20177;-78
2021/09/04 07:06:03;;;;;;;47.42;17.42;;;;;;;;;;4940903;28;20028;-77
2021/09/04 07:08:29;;;;;;;47.58;17.45;;;;;;;;;;4947692;28;20047;-78
2021/09/04 07:10:55;;;;;;;48.83;17.00;;;;;;;;;;4946033;28;20023;-78
2021/09/04 07:13:20;;;;;;;42.60;17.58;;;;;;;;;;4938863;28;20747;-78
2021/09/04 07:15:46;;;;;;;42.55;16.73;;;;;;;;;;4943812;28;20090;-78
2021/09/04 07:18:11;;;;;;;50.75;16.35;;;;;;;;;;4943908;28;20421;-78
2021/09/04 07:20:37;;;;;;;47.85;16.58;;;;;;;;;;4942457;28;20031;-78
2021/09/04 07:23:02;;;;;;;45.30;16.98;;;;;;;;;;4942666;28;20036;-78
2021/09/04 07:25:28;;;;;;;43.25;16.88;;;;;;;;;;4946676;28;20055;-79
2021/09/04 07:27:54;;;;;;;49.83;16.45;;;;;;;;;;4942434;28;20086;-78
2021/09/04 07:30:19;;;;;;;50.58;17.05;;;;;;;;;;4949114;28;20039;-78
2021/09/04 07:32:44;;;;;;;48.25;17.30;;;;;;;;;;4947732;28;20038;-78
2021/09/04 07:35:11;;;;;;;48.15;16.40;;;;;;;;;;4944611;28;20500;-78
2021/09/04 07:37:37;;;;;;;47.80;17.40;;;;;;;;;;4944060;28;20042;-78
2021/09/04 07:40:03;;;;;;;51.03;16.83;;;;;;;;;;4943620;28;20035;-78
2021/09/04 07:42:29;;;;;;;44.63;17.13;;;;;;;;;;4952691;28;20057;-78
2021/09/04 07:44:54;;;;;;;49.05;17.83;;;;;;;;;;4951384;28;20085;-79
2021/09/04 07:47:20;;;;;;;56.13;18.08;;;;;;;;;;4936008;28;20114;-78
2021/09/04 07:49:45;;;;;;;51.40;18.25;;;;;;;;;;4944455;28;20031;-78
2021/09/04 07:52:11;;;;;;;55.03;18.63;;;;;;;;;;4941089;28;20430;-78
2021/09/04 07:54:36;;;;;;;63.03;19.85;;;;;;;;;;4925307;28;20501;-78
2021/09/04 07:57:02;;;;;;;57.42;20.35;;;;;;;;;;4925743;29;20130;-78
2021/09/04 07:59:27;;;;;;;54.70;20.30;;;;;;;;;;4940239;28;20101;-78
2021/09/04 08:01:53;;;;;;;54.63;18.27;;;;;;;;;;4938092;28;20083;-78
2021/09/04 08:04:18;;;;;;;58.13;20.40;;;;;;;;;;4943135;28;20098;-78
2021/09/04 08:06:44;;;;;;;60.60;19.90;;;;;;;;;;4942856;28;20086;-78
2021/09/04 08:09:09;;;;;;;55.90;19.08;;;;;;;;;;4945635;28;20035;-78
2021/09/04 08:11:35;;;;;;;50.30;19.38;;;;;;;;;;4943615;28;20028;-78
2021/09/04 08:14:00;;;;;;;56.58;18.90;;;;;;;;;;4929653;29;20624;-78
2021/09/04 08:16:26;;;;;;;51.63;18.10;;;;;;;;;;4947412;28;20083;-78
2021/09/04 08:18:51;;;;;;;67.30;21.10;;;;;;;;;;4943094;28;20050;-78
2021/09/04 08:21:17;;;;;;;48.42;18.33;;;;;;;;;;4946503;28;20489;-79
2021/09/04 08:23:42;;;;;;;58.03;19.77;;;;;;;;;;4937808;28;20035;-79
2021/09/04 08:26:08;;;;;;;55.42;19.23;;;;;;;;;;4943902;28;20027;-78
2021/09/04 08:28:33;;;;;;;52.40;19.05;;;;;;;;;;4944257;28;20035;-79
2021/09/04 08:30:59;;;;;;;50.30;18.45;;;;;;;;;;4943545;28;20054;-78
2021/09/04 08:33:25;;;;;;;63.28;19.83;;;;;;;;;;4943621;28;20034;-78
2021/09/04 08:35:50;;;;;;;54.17;19.63;;;;;;;;;;4943901;28;20062;-78
2021/09/04 08:38:16;;;;;;;52.22;19.15;;;;;;;;;;4948746;28;20031;-78
2021/09/04 08:40:50;;;;;;;51.95;19.33;;;;;;;;;;4928998;28;20126;-79
2021/09/04 08:43:15;;;;;;;59.20;21.10;;;;;;;;;;4945589;28;20024;-79
2021/09/04 08:45:41;;;;;;;63.15;19.60;;;;;;;;;;4943572;28;20035;-78
2021/09/04 08:48:09;;;;;;;56.33;20.70;;;;;;;;;;4946436;28;20035;-78
2021/09/04 08:50:36;;;;;;;49.63;18.52;;;;;;;;;;4944398;28;20596;-79
2021/09/04 08:53:02;;;;;;;55.03;18.35;;;;;;;;;;4948761;28;20070;-79
2021/09/04 08:55:28;;;;;;;48.08;17.92;;;;;;;;;;4942672;28;20031;-78
2021/09/04 08:57:55;;;;;;;54.38;18.42;;;;;;;;;;4946843;28;20039;-79
2021/09/04 09:00:27;;;;;;;55.55;18.95;;;;;;;;;;4913084;28;20031;-79
2021/09/04 09:02:52;;;;;;;48.45;18.65;;;;;;;;;;4947210;28;20027;-78
2021/09/04 09:05:18;;;;;;;45.97;18.85;;;;;;;;;;4942525;28;20708;-78
2021/09/04 09:07:45;;;;;;;55.10;19.60;;;;;;;;;;4943694;28;20039;-78
2021/09/04 09:10:36;;;;;;;53.53;18.92;;;;;;;;;;4944590;28;20532;-79
2021/09/04 09:13:02;;;;;;;50.92;18.27;;;;;;;;;;4951678;28;20069;-79
2021/09/04 09:15:30;;;;;;;51.83;18.42;;;;;;;;;;4948128;28;20399;-79
2021/09/04 09:18:07;;;;;;;41.97;17.33;;;;;;;;;;4953919;28;20019;-79
2021/09/04 09:20:34;;;;;;;49.05;17.85;;;;;;;;;;4948067;28;20019;-79
2021/09/04 09:23:14;;;;;;;48.95;17.92;;;;;;;;;;4939640;28;20090;-79
2021/09/04 09:25:41;;;;;;;46.45;16.83;;;;;;;;;;4944355;28;20111;-78
2021/09/04 09:28:14;;;;;;;48.03;16.25;;;;;;;;;;4949309;28;20114;-79
2021/09/04 09:30:43;;;;;;;42.63;17.17;;;;;;;;;;4946747;28;20031;-79
2021/09/04 09:33:12;;;;;;;43.58;16.00;;;;;;;;;;4953521;28;20106;-79
2021/09/04 09:35:48;;;;;;;44.95;16.88;;;;;;;;;;4948625;28;20031;-82
2021/09/04 09:38:16;;;;;;;39.65;17.05;;;;;;;;;;4958754;28;20562;-79
2021/09/04 09:40:42;;;;;;;43.60;15.43;;;;;;;;;;4951559;28;20031;-79
2021/09/04 09:43:29;;;;;;;39.60;16.80;;;;;;;;;;4940920;28;20665;-79
2021/09/04 09:46:02;;;;;;;47.58;16.77;;;;;;;;;;4952643;28;20039;-78
2021/09/04 09:48:33;;;;;;;41.58;16.10;;;;;;;;;;4948283;28;20031;-78
2021/09/04 09:51:03;;;;;;;38.90;15.50;;;;;;;;;;4947752;28;20134;-79
2021/09/04 09:53:29;;;;;;;43.00;15.43;;;;;;;;;;4950568;28;20082;-80
2021/09/04 09:55:57;;;;;;;42.42;15.52;;;;;;;;;;4951165;28;20034;-79
2021/09/04 09:58:24;;;;;;;43.42;15.45;;;;;;;;;;4948813;28;20035;-79
2021/09/04 10:00:53;;;;;;;38.22;16.00;;;;;;;;;;4946654;28;20110;-79
2021/09/04 10:03:23;;;;;;;40.85;15.05;;;;;;;;;;4944979;28;20692;-79
2021/09/04 10:05:49;;;;;;;40.25;15.77;;;;;;;;;;4947385;28;20034;-78
2021/09/04 10:08:16;;;;;;;35.10;15.00;;;;;;;;;;4947446;28;20110;-78
2021/09/04 10:10:43;;;;;;;45.45;15.13;;;;;;;;;;4949020;28;20643;-79
2021/09/04 10:13:11;;;;;;;47.08;16.52;;;;;;;;;;4947229;28;20759;-79
2021/09/04 10:15:38;;;;;;;33.75;13.52;;;;;;;;;;4950936;28;20442;-79
2021/09/04 10:18:07;;;;;;;32.28;14.57;;;;;;;;;;4953324;28;20027;-79
2021/09/04 10:20:33;;;;;;;41.58;14.60;;;;;;;;;;4954297;28;20113;-79
2021/09/04 10:23:35;;;;;;;40.95;15.68;;;;;;;;;;4949029;28;20481;-79
2021/09/04 10:26:19;;;;;;;34.45;13.77;;;;;;;;;;4955766;28;20038;-79
2021/09/04 10:29:05;;;;;;;36.35;13.57;;;;;;;;;;4953688;28;20020;-79
2021/09/04 10:31:53;;;;;;;32.85;12.82;;;;;;;;;;4957514;28;20027;-80
2021/09/04 10:34:32;;;;;;;38.50;14.20;;;;;;;;;;4946155;28;20122;-79
2021/09/04 10:37:22;;;;;;;42.20;14.07;;;;;;;;;;4943137;28;20378;-80
2021/09/04 10:39:47;;;;;;;41.10;14.23;;;;;;;;;;4929135;28;20035;-78
2021/09/04 10:42:15;;;;;;;29.73;13.23;;;;;;;;;;4949196;28;20106;-78
2021/09/04 10:44:44;;;;;;;37.65;13.57;;;;;;;;;;4942950;28;20086;-77
2021/09/04 10:47:10;;;;;;;38.63;15.27;;;;;;;;;;4948272;28;20038;-78
2021/09/04 10:49:48;;;;;;;38.30;14.02;;;;;;;;;;4946138;28;20669;-78
2021/09/04 10:52:14;;;;;;;42.35;13.80;;;;;;;;;;4945361;28;20433;-77
2021/09/04 10:54:57;;;;;;;46.47;14.52;;;;;;;;;;4948837;28;20035;-77
2021/09/04 10:57:24;;;;;;;35.45;14.05;;;;;;;;;;4948769;28;20027;-78
2021/09/04 11:00:09;;;;;;;34.17;14.23;;;;;;;;;;4946695;28;20117;-78
2021/09/04 11:02:53;;;;;;;39.42;13.80;;;;;;;;;;4935198;28;20035;-78
2021/09/04 11:05:41;;;;;;;32.88;13.55;;;;;;;;;;4934197;28;20027;-80
2021/09/04 11:08:09;;;;;;;37.67;13.18;;;;;;;;;;4948818;28;20035;-79
2021/09/04 11:10:35;;;;;;;39.63;14.30;;;;;;;;;;4957781;28;20042;-80
2021/09/04 11:13:12;;;;;;;33.63;13.55;;;;;;;;;;4959872;28;20504;-79
2021/09/04 11:15:39;;;;;;;42.17;13.40;;;;;;;;;;4953798;28;20034;-79
2021/09/04 11:18:05;;;;;;;33.33;13.93;;;;;;;;;;4945946;28;20378;-79
2021/09/04 11:20:31;;;;;;;31.85;13.07;;;;;;;;;;4946539;28;20030;-77
2021/09/04 11:22:58;;;;;;;38.50;12.60;;;;;;;;;;4951260;28;20031;-79
2021/09/04 11:25:23;;;;;;;34.65;13.15;;;;;;;;;;4943378;28;20039;-79
2021/09/04 11:27:49;;;;;;;31.25;12.60;;;;;;;;;;4947675;28;20428;-79
2021/09/04 11:30:17;;;;;;;34.00;12.55;;;;;;;;;;4950125;28;20511;-79
2021/09/04 11:32:43;;;;;;;33.30;12.60;;;;;;;;;;4950991;28;20105;-79
2021/09/04 11:35:10;;;;;;;33.60;12.45;;;;;;;;;;4952605;28;20113;-79
2021/09/04 11:37:44;;;;;;;33.65;12.00;;;;;;;;;;4949133;28;20134;-79
2021/09/04 11:40:15;;;;;;;34.67;12.15;;;;;;;;;;4949834;28;20071;-79
2021/09/04 11:42:43;;;;;;;28.00;11.90;;;;;;;;;;4949858;28;20111;-79
2021/09/04 11:45:17;;;;;;;40.33;12.98;;;;;;;;;;4953077;28;20042;-79
2021/09/04 11:47:45;;;;;;;33.63;12.43;;;;;;;;;;4947159;28;20056;-78
2021/09/04 11:50:19;;;;;;;31.63;12.60;;;;;;;;;;4941099;28;20059;-79
2021/09/04 11:52:45;;;;;;;31.70;13.80;;;;;;;;;;4944285;28;20748;-79
2021/09/04 11:55:17;;;;;;;39.13;13.07;;;;;;;;;;4949118;28;20066;-77
2021/09/04 11:57:44;;;;;;;27.65;12.65;;;;;;;;;;4945505;28;20047;-79
2021/09/04 12:00:18;;;;;;;34.75;14.68;;;;;;;;;;4945673;28;20042;-78
2021/09/04 12:02:49;;;;;;;31.40;14.98;;;;;;;;;;4946035;28;20032;-79
2021/09/04 12:05:17;;;;;;;41.65;14.38;;;;;;;;;;4944692;28;20065;-79
2021/09/04 12:07:43;;;;;;;31.55;14.55;;;;;;;;;;4949460;28;20041;-79
2021/09/04 12:10:10;;;;;;;34.70;14.75;;;;;;;;;;4950679;28;20035;-79
2021/09/04 12:12:36;;;;;;;35.65;13.95;;;;;;;;;;4944730;28;20102;-81
2021/09/04 12:15:03;;;;;;;30.35;13.63;;;;;;;;;;4928974;29;20489;-80
2021/09/04 12:17:28;;;;;;;35.78;14.55;;;;;;;;;;4939149;28;20050;-80
2021/09/04 12:19:55;;;;;;;38.80;16.10;;;;;;;;;;4944250;28;20039;-81
2021/09/04 12:22:32;;;;;;;30.95;14.20;;;;;;;;;;4946125;28;20030;-81
2021/09/04 12:24:58;;;;;;;35.53;13.77;;;;;;;;;;4947779;28;20031;-80
2021/09/04 12:27:40;;;;;;;31.85;12.35;;;;;;;;;;4947588;28;20030;-78
2021/09/04 12:30:07;;;;;;;37.95;13.35;;;;;;;;;;4943453;28;20675;-82
2021/09/04 12:32:35;;;;;;;30.23;13.88;;;;;;;;;;4944145;28;20049;-78
2021/09/04 12:35:00;;;;;;;31.27;12.00;;;;;;;;;;4938120;28;20039;-79
2021/09/04 12:37:27;;;;;;;33.10;12.27;;;;;;;;;;4936569;28;20527;-78
2021/09/04 12:40:05;;;;;;;32.20;14.60;;;;;;;;;;4946800;28;20082;-78
2021/09/04 12:42:30;;;;;;;27.95;13.30;;;;;;;;;;4939115;28;20027;-78
2021/09/04 12:45:04;;;;;;;32.72;13.77;;;;;;;;;;4940433;28;20047;-78
2021/09/04 12:47:45;;;;;;;27.48;14.35;;;;;;;;;;4960953;28;20035;-79
2021/09/04 12:50:30;;;;;;;23.55;13.02;;;;;;;;;;4939975;28;20552;-80
2021/09/04 12:53:08;;;;;;;29.08;13.68;;;;;;;;;;4944565;28;20027;-78
2021/09/04 12:55:50;;;;;;;31.63;13.98;;;;;;;;;;4946875;28;20161;-79
2021/09/04 12:58:16;;;;;;;24.20;12.93;;;;;;;;;;4951892;28;20772;-78
2021/09/04 13:00:42;;;;;;;33.08;13.85;;;;;;;;;;4946931;28;20046;-78
2021/09/04 13:03:07;;;;;;;28.80;14.48;;;;;;;;;;4931847;29;20087;-78
2021/09/04 13:05:33;;;;;;;27.10;12.68;;;;;;;;;;4940594;28;20035;-80
2021/09/04 13:07:59;;;;;;;34.55;15.05;;;;;;;;;;4947716;28;20946;-79
2021/09/04 13:10:27;;;;;;;32.90;15.80;;;;;;;;;;4953816;28;20039;-79
2021/09/04 13:12:53;;;;;;;37.13;16.08;;;;;;;;;;4952974;28;20023;-80
2021/09/04 13:15:20;;;;;;;35.95;15.70;;;;;;;;;;4942157;28;20031;-78
2021/09/04 13:17:46;;;;;;;33.30;14.75;;;;;;;;;;4947644;28;20057;-80
2021/09/04 13:20:13;;;;;;;28.70;14.30;;;;;;;;;;4934306;28;20082;-79
2021/09/04 13:22:39;;;;;;;26.63;13.52;;;;;;;;;;4948605;28;20037;-80
2021/09/04 13:25:07;;;;;;;32.28;15.07;;;;;;;;;;4938746;28;20049;-80
2021/09/04 13:27:33;;;;;;;27.00;14.45;;;;;;;;;;4942467;28;20031;-80
2021/09/04 13:29:59;;;;;;;31.88;14.10;;;;;;;;;;4951329;28;20094;-80
2021/09/04 13:32:24;;;;;;;26.00;12.82;;;;;;;;;;4949225;28;20031;-80
2021/09/04 13:34:49;;;;;;;30.05;14.77;;;;;;;;;;4923293;28;20053;-80
2021/09/04 13:37:15;;;;;;;27.73;13.77;;;;;;;;;;4932669;29;20043;-79
2021/09/04 13:39:40;;;;;;;30.90;13.45;;;;;;;;;;4952255;28;20154;-80
2021/09/04 13:42:06;;;;;;;30.55;14.25;;;;;;;;;;4953052;28;20039;-81
2021/09/04 13:44:35;;;;;;;29.13;14.88;;;;;;;;;;4942577;28;20035;-79
2021/09/04 13:47:01;;;;;;;34.17;14.85;;;;;;;;;;4939039;28;20066;-79
2021/09/04 13:49:26;;;;;;;28.92;13.90;;;;;;;;;;4952656;28;20085;-79
2021/09/04 13:51:52;;;;;;;26.30;12.88;;;;;;;;;;4950792;28;20051;-80
2021/09/04 13:54:18;;;;;;;29.77;13.45;;;;;;;;;;4933629;29;20062;-80
2021/09/04 13:56:44;;;;;;;32.45;15.38;;;;;;;;;;4948941;28;20442;-80
2021/09/04 13:59:09;;;;;;;27.92;14.88;;;;;;;;;;4939409;28;20498;-79
2021/09/04 14:01:35;;;;;;;38.17;16.42;;;;;;;;;;4946185;28;20039;-80
2021/09/04 14:04:00;;;;;;;28.52;15.20;;;;;;;;;;4949173;28;20058;-79
2021/09/04 14:06:26;;;;;;;39.63;16.98;;;;;;;;;;4944742;28;20098;-79
2021/09/04 14:08:51;;;;;;;34.88;15.52;;;;;;;;;;4946796;28;20090;-80
2021/09/04 14:11:17;;;;;;;28.23;16.05;;;;;;;;;;4950823;28;20110;-79
2021/09/04 14:13:42;;;;;;;34.25;15.48;;;;;;;;;;4953539;28;20126;-80
2021/09/04 14:16:08;;;;;;;34.85;15.85;;;;;;;;;;4952154;28;20046;-79